Time;durP1;ratioP1;P1;durP2;ratioP2;P2;SDS_P1;SDS_P2;PMS_P1;PMS_P2;Temp;Humidity;BMP_temperature;BMP_pressure;BME280_temperature;BME280_humidity;BME280_pressure;Samples;Min_cycle;Max_cycle;Signal;HPM_P1;HPM_P2
2023/08/16 00:00:06;;;;;;;3.27;2.03;;;14.80;1.00;;;;;;6106920;23;20249;-88
2023/08/16 00:02:32;;;;;;;2.42;2.10;;;14.70;1.00;;;;;;6130352;23;20092;-87
2023/08/16 00:04:58;;;;;;;3.17;2.50;;;14.70;1.00;;;;;;6130714;23;20060;-87
2023/08/16 00:07:24;;;;;;;4.00;2.13;;;14.70;1.00;;;;;;6130123;23;20021;-89
2023/08/16 00:09:52;;;;;;;2.57;2.13;;;14.70;1.00;;;;;;6155068;23;20024;-88
2023/08/16 00:12:18;;;;;;;4.05;2.20;;;14.70;1.00;;;;;;6155030;23;20072;-92
2023/08/16 00:14:44;;;;;;;3.13;2.10;;;14.80;1.00;;;;;;6131034;23;20021;-87
2023/08/16 00:17:09;;;;;;;3.47;2.20;;;14.70;1.00;;;;;;6130445;23;20021;-91
2023/08/16 00:19:37;;;;;;;2.93;2.27;;;14.70;1.00;;;;;;6154415;23;20095;-88
2023/08/16 00:22:02;;;;;;;3.58;1.92;;;14.60;1.00;;;;;;6155165;23;20021;-87
2023/08/16 00:24:28;;;;;;;2.23;2.03;;;14.60;1.00;;;;;;6130497;23;20446;-87
2023/08/16 00:26:54;;;;;;;3.13;2.20;;;14.50;1.00;;;;;;6130396;23;20342;-88
2023/08/16 00:29:19;;;;;;;2.97;2.63;;;14.50;1.00;;;;;;6155116;23;20302;-88
2023/08/16 00:31:45;;;;;;;2.00;1.80;;;14.50;1.00;;;;;;6154867;23;20014;-87
2023/08/16 00:34:11;;;;;;;1.97;1.73;;;14.40;1.00;;;;;;6154840;23;20014;-87
2023/08/16 00:36:37;;;;;;;1.80;1.57;;;14.00;1.00;;;;;;6130043;23;20067;-88
2023/08/16 00:39:03;;;;;;;1.73;1.60;;;14.30;1.00;;;;;;6156908;23;20253;-87
2023/08/16 00:41:29;;;;;;;4.07;2.00;;;14.30;1.00;;;;;;6154125;23;20021;-87
2023/08/16 00:43:54;;;;;;;2.83;2.10;;;14.20;1.00;;;;;;6154049;23;20118;-87
2023/08/16 00:46:21;;;;;;;1.70;1.60;;;14.20;1.00;;;;;;6129753;23;20023;-91
2023/08/16 00:48:46;;;;;;;3.05;2.08;;;14.20;1.00;;;;;;6129105;23;20022;-87
2023/08/16 00:51:13;;;;;;;3.07;1.80;;;14.20;1.00;;;;;;6129736;23;20025;-87
2023/08/16 00:53:40;;;;;;;3.35;1.80;;;14.10;1.00;;;;;;6129036;23;20025;-87
2023/08/16 00:56:06;;;;;;;3.47;2.00;;;14.10;1.00;;;;;;6129966;23;20013;-86
2023/08/16 00:58:34;;;;;;;2.70;1.80;;;14.10;1.00;;;;;;6129609;23;20040;-87
2023/08/16 01:01:03;;;;;;;3.17;1.75;;;14.10;1.00;;;;;;6154344;23;20621;-87
2023/08/16 01:03:32;;;;;;;1.95;1.75;;;14.10;1.00;;;;;;6130519;23;20025;-88
2023/08/16 01:05:57;;;;;;;2.42;2.17;;;14.00;1.00;;;;;;6130496;23;20033;-87
2023/08/16 01:08:26;;;;;;;1.92;1.73;;;13.90;1.00;;;;;;6131032;23;20024;-91
2023/08/16 01:11:00;;;;;;;3.47;1.90;;;13.30;1.00;;;;;;6154903;23;20402;-88
2023/08/16 01:13:41;;;;;;;2.75;2.08;;;13.30;1.00;;;;;;6155567;23;20020;-87
2023/08/16 01:16:09;;;;;;;4.68;2.08;;;13.80;1.00;;;;;;6155210;23;20064;-87
2023/08/16 01:18:37;;;;;;;2.97;2.25;;;13.70;1.00;;;;;;6153866;23;20021;-88
2023/08/16 01:21:06;;;;;;;2.80;2.08;;;13.60;1.00;;;;;;6154576;23;20049;-87
2023/08/16 01:24:04;;;;;;;2.30;2.10;;;13.70;1.00;;;;;;6128955;23;20017;-87
2023/08/16 01:26:37;;;;;;;3.50;2.20;;;13.60;1.00;;;;;;6154551;23;20037;-93
2023/08/16 01:29:04;;;;;;;2.35;2.15;;;13.70;1.00;;;;;;6154522;23;20026;-88
2023/08/16 01:31:34;;;;;;;3.55;2.20;;;13.60;1.00;;;;;;6130140;23;20013;-92
2023/08/16 01:33:59;;;;;;;2.92;2.20;;;13.60;1.00;;;;;;6154654;23;20036;-88
2023/08/16 01:36:28;;;;;;;2.90;2.70;;;13.50;1.00;;;;;;6154436;23;20021;-87
2023/08/16 01:38:55;;;;;;;3.78;2.38;;;13.50;1.00;;;;;;6153680;23;20037;-87
2023/08/16 01:41:37;;;;;;;;;;;;;;;;;;;;;
2023/08/16 01:44:04;;;;;;;4.32;2.78;;;13.50;3.20;;;;;;6155738;23;20041;-88
2023/08/16 01:46:32;;;;;;;;;;;13.50;6.20;;;;;;6130544;23;20021;-87
2023/08/16 01:49:01;;;;;;;3.75;2.90;;;12.70;16.90;;;;;;6154054;23;19916;-87
2023/08/16 01:51:27;;;;;;;6.20;2.95;;;13.40;6.80;;;;;;6155524;23;20029;-87
2023/08/16 01:53:54;;;;;;;2.53;2.33;;;13.50;3.90;;;;;;6154361;23;20224;-88
2023/08/16 01:56:21;;;;;;;3.28;2.08;;;13.40;1.30;;;;;;6153728;23;20068;-87
2023/08/16 01:58:47;;;;;;;2.88;1.70;;;13.30;1.00;;;;;;6153725;23;20024;-88
2023/08/16 02:01:14;;;;;;;1.80;1.70;;;13.20;2.50;;;;;;6154963;23;20021;-87
2023/08/16 02:03:40;;;;;;;1.92;1.83;;;13.20;3.80;;;;;;6130117;23;20021;-88
2023/08/16 02:06:08;;;;;;;8.32;3.38;;;13.20;5.90;;;;;;6154390;23;20017;-87
2023/08/16 02:08:36;;;;;;;4.55;2.33;;;13.20;8.20;;;;;;6154201;23;20026;-95
2023/08/16 02:11:05;;;;;;;2.30;2.10;;;12.20;9.00;;;;;;6153848;23;20017;-87
2023/08/16 02:13:30;;;;;;;3.30;2.22;;;13.40;10.60;;;;;;6155397;23;20013;-87
2023/08/16 02:16:05;;;;;;;2.47;1.83;;;13.20;9.00;;;;;;6105569;23;20017;-89
2023/08/16 02:18:31;;;;;;;2.83;2.38;;;13.20;7.10;;;;;;6105279;23;20076;-87
2023/08/16 02:21:00;;;;;;;2.22;2.00;;;13.20;6.50;;;;;;6129451;23;20079;-88
2023/08/16 02:23:26;;;;;;;3.50;1.87;;;13.20;5.50;;;;;;6130166;23;20025;-86
2023/08/16 02:25:52;;;;;;;3.83;2.10;;;13.10;5.50;;;;;;6128869;23;20100;-87
2023/08/16 02:28:19;;;;;;;2.13;2.03;;;13.20;5.60;;;;;;6153919;23;20024;-87
2023/08/16 02:30:47;;;;;;;4.00;2.30;;;13.10;6.30;;;;;;6153601;23;20017;-88
2023/08/16 02:33:12;;;;;;;2.72;2.50;;;13.20;6.80;;;;;;6153723;23;20029;-87
2023/08/16 02:35:41;;;;;;;5.70;2.80;;;13.10;8.40;;;;;;6128433;23;20330;-93
2023/08/16 02:38:09;;;;;;;3.60;2.97;;;13.20;11.50;;;;;;6128801;23;20061;-88
2023/08/16 02:40:36;;;;;;;4.43;3.15;;;13.20;14.80;;;;;;6153858;23;20017;-88
2023/08/16 02:43:02;;;;;;;3.78;2.47;;;13.20;16.90;;;;;;6154178;23;20343;-86
2023/08/16 02:45:28;;;;;;;4.18;2.78;;;13.30;17.30;;;;;;6128529;23;20029;-87
2023/08/16 02:47:54;;;;;;;3.17;2.87;;;13.20;17.60;;;;;;6129302;23;20025;-87
2023/08/16 02:50:20;;;;;;;5.33;2.37;;;13.20;17.90;;;;;;6129099;23;20320;-87
2023/08/16 02:52:47;;;;;;;3.08;2.88;;;13.30;18.80;;;;;;6153212;23;20081;-88
2023/08/16 02:55:16;;;;;;;2.78;2.55;;;13.20;18.20;;;;;;6129698;23;20076;-89
2023/08/16 02:57:45;;;;;;;4.27;2.40;;;13.20;17.20;;;;;;6129448;23;20018;-92
2023/08/16 03:00:13;;;;;;;3.05;2.70;;;13.10;13.70;;;;;;6153271;23;20233;-87
2023/08/16 03:02:41;;;;;;;3.75;2.65;;;13.20;12.50;;;;;;6128182;23;20014;-88
2023/08/16 03:05:16;;;;;;;3.15;2.70;;;13.10;11.20;;;;;;6103661;23;20017;-87
2023/08/16 03:07:42;;;;;;;2.40;2.20;;;12.90;9.40;;;;;;6128699;23;20052;-88
2023/08/16 03:10:08;;;;;;;3.58;2.70;;;13.00;5.40;;;;;;6153337;23;20088;-87
2023/08/16 03:12:34;;;;;;;4.63;2.65;;;13.00;7.20;;;;;;6129592;23;20025;-87
2023/08/16 03:15:03;;;;;;;2.60;2.40;;;13.00;9.80;;;;;;6153228;23;20117;-87
2023/08/16 03:17:28;;;;;;;4.05;2.60;;;12.90;10.90;;;;;;6153766;23;20045;-87
2023/08/16 03:19:56;;;;;;;5.67;2.47;;;12.90;11.80;;;;;;6128700;23;20018;-87
2023/08/16 03:22:22;;;;;;;3.10;2.80;;;12.80;13.00;;;;;;6128897;23;20017;-87
2023/08/16 03:24:49;;;;;;;2.40;2.20;;;12.90;13.60;;;;;;6104236;23;20025;-88
2023/08/16 03:27:18;;;;;;;3.35;2.55;;;12.90;14.90;;;;;;6128795;23;20025;-88
2023/08/16 03:29:44;;;;;;;3.83;2.45;;;12.80;16.90;;;;;;6156299;23;20021;-87
2023/08/16 03:32:10;;;;;;;4.87;2.63;;;12.90;19.30;;;;;;6153325;23;20020;-88
2023/08/16 03:34:40;;;;;;;3.03;2.67;;;11.90;20.50;;;;;;6129230;23;20279;-87
2023/08/16 03:37:06;;;;;;;5.80;3.08;;;12.90;21.90;;;;;;6127941;23;20056;-87
2023/08/16 03:39:41;;;;;;;2.60;2.40;;;12.90;22.80;;;;;;6130789;23;20088;-87
2023/08/16 03:42:07;;;;;;;3.40;2.23;;;12.90;22.60;;;;;;6152735;23;20450;-87
2023/08/16 03:44:33;;;;;;;2.67;2.17;;;12.80;22.80;;;;;;6153721;23;20257;-88
2023/08/16 03:46:58;;;;;;;3.53;2.35;;;12.80;21.50;;;;;;6154554;23;20327;-87
2023/08/16 03:49:27;;;;;;;3.50;1.97;;;12.80;19.80;;;;;;6128706;23;20025;-88
2023/08/16 03:51:55;;;;;;;3.53;2.38;;;12.70;16.60;;;;;;6153008;23;20461;-87
2023/08/16 03:54:21;;;;;;;2.35;2.13;;;12.60;14.90;;;;;;6153282;23;20393;-87
2023/08/16 03:56:47;;;;;;;3.27;2.20;;;12.60;15.70;;;;;;6128802;23;20032;-87
2023/08/16 03:59:15;;;;;;;2.83;2.40;;;12.60;15.80;;;;;;6153232;23;20041;-87
2023/08/16 04:01:41;;;;;;;2.13;1.70;;;12.50;16.30;;;;;;6153668;23;20256;-88
2023/08/16 04:04:07;;;;;;;3.88;2.50;;;12.40;18.00;;;;;;6153127;23;20025;-87
2023/08/16 04:06:33;;;;;;;2.70;2.50;;;12.40;20.30;;;;;;6128842;23;20021;-87
2023/08/16 04:09:01;;;;;;;3.57;2.43;;;12.40;22.00;;;;;;6128815;23;20252;-87
2023/08/16 04:11:27;;;;;;;5.45;2.38;;;12.40;22.50;;;;;;6130627;23;20020;-87
2023/08/16 04:13:53;;;;;;;2.57;2.37;;;12.40;22.50;;;;;;6154975;23;20026;-92
2023/08/16 04:16:19;;;;;;;2.87;1.97;;;12.40;23.60;;;;;;6105831;23;20018;-87
2023/08/16 04:18:44;;;;;;;2.30;2.10;;;12.50;23.50;;;;;;6130482;23;20079;-87
2023/08/16 04:21:15;;;;;;;3.47;2.13;;;12.40;23.20;;;;;;6154102;23;20022;-87
2023/08/16 04:23:44;;;;;;;3.53;2.00;;;12.40;23.60;;;;;;6155070;23;20013;-87
2023/08/16 04:26:09;;;;;;;2.63;2.40;;;12.40;24.10;;;;;;6154491;23;20017;-89
2023/08/16 04:28:35;;;;;;;3.33;2.13;;;12.40;24.90;;;;;;6106070;23;20020;-86
2023/08/16 04:31:01;;;;;;;2.55;2.35;;;12.40;24.90;;;;;;6130425;23;20022;-87
2023/08/16 04:33:27;;;;;;;3.27;2.80;;;12.40;25.50;;;;;;6154880;23;20045;-87
2023/08/16 04:35:54;;;;;;;3.97;3.13;;;12.40;24.20;;;;;;6154542;23;20021;-92
2023/08/16 04:38:20;;;;;;;4.38;3.25;;;12.30;23.80;;;;;;6129690;23;20022;-87
2023/08/16 04:40:49;;;;;;;4.07;2.90;;;12.40;26.20;;;;;;6130070;23;20469;-87
2023/08/16 04:43:15;;;;;;;3.72;2.63;;;12.30;26.40;;;;;;6153727;23;20069;-87
2023/08/16 04:45:43;;;;;;;5.72;3.28;;;12.20;28.20;;;;;;6129915;23;20017;-87
2023/08/16 04:48:09;;;;;;;6.05;3.88;;;11.90;30.40;;;;;;6154412;23;20028;-86
2023/08/16 04:50:35;;;;;;;4.80;3.53;;;12.30;33.80;;;;;;6154642;23;20447;-86
2023/08/16 04:53:03;;;;;;;4.07;3.63;;;12.30;37.40;;;;;;6129796;23;20014;-87
2023/08/16 04:55:31;;;;;;;3.67;3.15;;;12.40;38.60;;;;;;6155065;23;20277;-87
2023/08/16 04:57:59;;;;;;;6.13;3.22;;;12.40;39.40;;;;;;6154756;23;20092;-87
2023/08/16 05:00:28;;;;;;;3.47;3.17;;;12.50;39.30;;;;;;6154428;23;20017;-87
2023/08/16 05:02:53;;;;;;;4.60;3.60;;;12.50;39.60;;;;;;6154453;23;20018;-86
2023/08/16 05:05:21;;;;;;;4.03;3.60;;;12.00;40.80;;;;;;6154492;23;20020;-87
2023/08/16 05:07:47;;;;;;;4.47;3.60;;;12.60;40.90;;;;;;6154949;23;20029;-89
2023/08/16 05:10:14;;;;;;;4.50;3.60;;;12.60;42.70;;;;;;6105387;23;20455;-87
2023/08/16 05:12:40;;;;;;;5.65;3.80;;;11.90;44.00;;;;;;6129833;23;20316;-87
2023/08/16 05:15:06;;;;;;;4.57;3.90;;;12.70;45.70;;;;;;6154105;23;20024;-87
2023/08/16 05:17:32;;;;;;;7.65;4.50;;;12.70;46.30;;;;;;6154267;23;20017;-87
2023/08/16 05:20:00;;;;;;;5.22;3.72;;;12.80;48.30;;;;;;6154461;23;20342;-87
2023/08/16 05:22:26;;;;;;;7.13;4.10;;;11.90;49.90;;;;;;6129356;23;20096;-86
2023/08/16 05:24:59;;;;;;;5.25;3.88;;;13.10;51.20;;;;;;6130465;23;20253;-87
2023/08/16 05:27:25;;;;;;;4.57;3.80;;;13.20;49.40;;;;;;6107111;23;20021;-86
2023/08/16 05:29:56;;;;;;;3.63;3.33;;;12.50;46.40;;;;;;6154973;23;20021;-86
2023/08/16 05:32:32;;;;;;;6.78;4.00;;;13.60;45.00;;;;;;6106039;23;20450;-87
2023/08/16 05:34:57;;;;;;;4.35;3.85;;;13.70;43.80;;;;;;6129274;23;20027;-87
2023/08/16 05:37:23;;;;;;;4.95;3.90;;;13.80;42.60;;;;;;6128042;23;20345;-87
2023/08/16 05:39:51;;;;;;;6.37;4.20;;;13.90;43.30;;;;;;6154137;23;20076;-87
2023/08/16 05:42:17;;;;;;;3.90;3.50;;;14.10;44.60;;;;;;6154601;23;20249;-87
2023/08/16 05:44:43;;;;;;;7.00;4.07;;;14.30;45.30;;;;;;6132660;23;20426;-87
2023/08/16 05:47:13;;;;;;;7.88;5.10;;;14.50;43.10;;;;;;6154342;23;20100;-87
2023/08/16 05:49:41;;;;;;;6.88;5.75;;;14.70;42.10;;;;;;6105867;23;20099;-87
2023/08/16 05:52:07;;;;;;;9.75;6.05;;;14.90;41.50;;;;;;6154264;23;20144;-90
2023/08/16 05:54:33;;;;;;;6.68;6.07;;;15.10;41.10;;;;;;6154488;23;20057;-86
2023/08/16 05:56:58;;;;;;;7.03;6.10;;;15.20;42.10;;;;;;6129959;23;20045;-87
2023/08/16 05:59:26;;;;;;;8.50;5.38;;;15.40;40.40;;;;;;6154054;23;20032;-86
2023/08/16 06:01:52;;;;;;;7.70;6.50;;;15.60;38.20;;;;;;6130179;23;20021;-87
2023/08/16 06:04:18;;;;;;;7.47;6.78;;;15.70;40.10;;;;;;6132390;23;20509;-87
2023/08/16 06:06:43;;;;;;;9.57;7.35;;;15.80;41.80;;;;;;6129723;23;20032;-87
2023/08/16 06:09:12;;;;;;;9.63;6.78;;;15.90;44.10;;;;;;6153718;23;20087;-91
2023/08/16 06:11:38;;;;;;;9.27;7.18;;;16.10;48.20;;;;;;6153149;23;20017;-87
2023/08/16 06:14:04;;;;;;;7.40;6.43;;;16.30;50.40;;;;;;6128845;23;20056;-87
2023/08/16 06:16:32;;;;;;;9.65;7.18;;;16.50;47.00;;;;;;6153521;23;20103;-87
2023/08/16 06:18:58;;;;;;;8.27;6.50;;;16.50;43.80;;;;;;6153567;23;20076;-89
2023/08/16 06:21:24;;;;;;;9.48;6.60;;;16.60;43.80;;;;;;6153156;23;20075;-87
2023/08/16 06:23:51;;;;;;;8.52;6.82;;;16.70;44.10;;;;;;6153264;23;20050;-88
2023/08/16 06:26:17;;;;;;;;;;;15.90;44.90;;;;;;6153183;23;20021;-88
2023/08/16 06:28:42;;;;;;;7.80;6.85;;;16.70;48.20;;;;;;6129328;23;19948;-87
2023/08/16 06:31:08;;;;;;;7.70;6.93;;;16.70;45.80;;;;;;6129146;23;20021;-83
2023/08/16 06:33:34;;;;;;;11.10;7.32;;;16.80;46.00;;;;;;6129611;23;20026;-82
2023/08/16 06:36:00;;;;;;;9.00;7.32;;;16.80;47.00;;;;;;6155749;23;20454;-84
2023/08/16 06:38:25;;;;;;;9.27;6.78;;;16.90;49.00;;;;;;6154590;23;20021;-85
2023/08/16 06:40:51;;;;;;;8.30;7.40;;;17.00;50.50;;;;;;6152527;23;20443;-85
2023/08/16 06:43:17;;;;;;;9.87;6.77;;;17.00;50.50;;;;;;6153820;23;20097;-86
2023/08/16 06:45:42;;;;;;;9.25;7.45;;;17.10;50.10;;;;;;6153298;23;20473;-86
2023/08/16 06:48:08;;;;;;;14.25;7.38;;;17.10;49.00;;;;;;6154518;23;20101;-86
2023/08/16 06:50:34;;;;;;;7.07;6.38;;;17.20;49.20;;;;;;6128255;23;20037;-86
2023/08/16 06:53:00;;;;;;;9.25;7.45;;;17.30;52.70;;;;;;6153418;23;20017;-89
2023/08/16 06:55:25;;;;;;;7.32;6.43;;;17.40;53.00;;;;;;6154124;23;20014;-89
2023/08/16 06:57:54;;;;;;;12.03;6.10;;;17.40;51.70;;;;;;6154739;23;20022;-92
2023/08/16 07:00:31;;;;;;;7.47;6.63;;;17.40;51.70;;;;;;6105330;23;20021;-91
2023/08/16 07:03:19;;;;;;;7.63;6.65;;;17.30;50.80;;;;;;6108675;23;20053;-91
2023/08/16 07:05:58;;;;;;;10.55;7.72;;;17.30;52.60;;;;;;6129434;23;20020;-92
2023/08/16 07:08:27;;;;;;;7.40;6.22;;;17.30;56.00;;;;;;6129453;23;20025;-89
2023/08/16 07:11:00;;;;;;;9.05;6.60;;;17.40;60.20;;;;;;6129411;23;20459;-90
2023/08/16 07:13:28;;;;;;;9.85;6.65;;;17.50;62.80;;;;;;6128605;23;20022;-90
2023/08/16 07:15:59;;;;;;;7.75;6.45;;;17.60;60.60;;;;;;6129423;23;20470;-91
2023/08/16 07:18:28;;;;;;;7.18;5.20;;;17.80;58.10;;;;;;6106663;23;20024;-90
2023/08/16 07:21:01;;;;;;;11.15;6.90;;;17.80;57.10;;;;;;6130063;23;20017;-91
2023/08/16 07:23:27;;;;;;;8.13;6.20;;;17.90;55.30;;;;;;6153377;23;20447;-92
2023/08/16 07:26:01;;;;;;;11.15;6.43;;;18.20;58.40;;;;;;6129194;23;20021;-91
2023/08/16 07:28:27;;;;;;;6.95;5.72;;;18.40;57.10;;;;;;6153652;23;20013;-90
2023/08/16 07:31:03;;;;;;;9.50;5.70;;;18.60;51.30;;;;;;6105578;23;20100;-89
2023/08/16 07:33:52;;;;;;;9.63;5.70;;;18.70;49.10;;;;;;6156057;23;20048;-88
2023/08/16 07:36:37;;;;;;;7.10;4.95;;;18.60;43.10;;;;;;6081777;23;20028;-88
2023/08/16 07:39:09;;;;;;;8.40;5.28;;;18.70;40.30;;;;;;6131950;23;20025;-89
2023/08/16 07:41:55;;;;;;;6.63;4.53;;;18.60;45.10;;;;;;6104919;23;20013;-89
2023/08/16 07:44:24;;;;;;;7.82;6.45;;;18.80;42.80;;;;;;6088485;23;20014;-92
2023/08/16 07:47:11;;;;;;;7.40;4.88;;;19.00;45.80;;;;;;6129542;23;20021;-96
2023/08/16 08:04:50;;;;;;;;;;;;;;;;;;;;;
2023/08/16 08:08:01;;;;;;;;;;;;;;;;;;;;;
2023/08/16 08:10:41;;;;;;;3.72;2.70;;;18.90;12.80;;;;;;5795407;24;20080;-88
2023/08/16 08:13:51;;;;;;;3.55;2.58;;;19.00;18.30;;;;;;5855313;24;20074;-89
2023/08/16 08:19:42;;;;;;;5.75;2.67;;;19.40;1.00;;;;;;6167162;23;20100;-88
2023/08/16 08:22:11;;;;;;;3.58;2.10;;;19.60;1.00;;;;;;6136853;23;20013;-89
2023/08/16 08:24:50;;;;;;;3.08;1.48;;;19.80;1.00;;;;;;6136377;23;20095;-89
2023/08/16 08:27:26;;;;;;;4.53;2.15;;;19.90;1.00;;;;;;6161288;23;20024;-89
2023/08/16 08:30:01;;;;;;;2.25;1.50;;;19.40;1.00;;;;;;6136421;23;20052;-89
2023/08/16 08:32:29;;;;;;;1.60;1.50;;;20.00;1.00;;;;;;6160805;23;20088;-91
2023/08/16 08:34:55;;;;;;;4.78;2.03;;;20.20;1.00;;;;;;6111586;23;20013;-90
2023/08/16 08:37:23;;;;;;;2.15;1.70;;;20.20;1.00;;;;;;6135897;23;20056;-89
2023/08/16 08:39:49;;;;;;;5.60;2.10;;;20.40;1.00;;;;;;6159786;23;20052;-88
2023/08/16 08:42:16;;;;;;;3.72;1.80;;;20.40;1.00;;;;;;6135401;23;20345;-89
2023/08/16 08:44:43;;;;;;;1.52;1.42;;;20.50;1.00;;;;;;6133972;23;20021;-86
2023/08/16 08:47:10;;;;;;;1.70;1.60;;;20.60;1.00;;;;;;6158473;23;20021;-92
2023/08/16 08:49:40;;;;;;;2.92;1.70;;;20.70;1.00;;;;;;6133589;23;20021;-90
2023/08/16 08:52:08;;;;;;;2.88;1.90;;;20.70;1.00;;;;;;6159091;23;20017;-90
2023/08/16 08:54:37;;;;;;;4.45;2.03;;;20.70;99.90;;;;;;6158235;23;20024;-88
2023/08/16 08:57:07;;;;;;;3.78;1.40;;;20.80;1.00;;;;;;6134341;23;20047;-94
2023/08/16 09:00:05;;;;;;;3.80;1.95;;;20.90;1.00;;;;;;6133596;23;20052;-89
2023/08/16 09:02:46;;;;;;;;;;;;;;;;;;;;;
2023/08/16 09:05:18;;;;;;;4.60;1.80;;;21.00;99.90;;;;;;6158455;23;20012;-90
2023/08/16 09:07:52;;;;;;;2.15;1.60;;;21.00;99.90;;;;;;6133565;23;20104;-89
2023/08/16 09:10:21;;;;;;;2.10;1.63;;;21.00;99.90;;;;;;6110029;23;20017;-89
2023/08/16 09:13:36;;;;;;;2.75;1.45;;;21.10;99.90;;;;;;6086026;23;20020;-92
2023/08/16 09:16:08;;;;;;;2.55;1.55;;;21.20;99.90;;;;;;6087335;23;20031;-83
2023/08/16 09:19:06;;;;;;;3.45;1.42;;;21.30;99.90;;;;;;6121842;23;20029;-94
2023/08/16 09:25:21;;;;;;;1.95;1.33;;;21.50;1.00;;;;;;6185993;23;20047;-94
2023/08/16 09:28:08;;;;;;;2.92;2.28;;;21.70;1.00;;;;;;6136649;23;20053;-94
2023/08/16 09:30:55;;;;;;;;;;;;;;;;;;;;;
2023/08/16 09:34:12;;;;;;;;;;;;;;;;;;;;;
2023/08/16 09:37:28;;;;;;;3.03;2.65;;;21.70;99.90;;;;;;6126439;23;20022;-94
2023/08/16 09:40:46;;;;;;;;;;;;;;;;;;;;;
2023/08/16 09:44:27;;;;;;;;;;;;;;;;;;;;;
2023/08/16 09:53:21;;;;;;;2.95;2.33;;;21.80;99.90;;;;;;6093011;23;20355;-93
2023/08/16 09:56:33;;;;;;;;;;;;;;;;;;;;;
2023/08/16 10:02:56;;;;;;;4.60;2.90;;;22.10;99.90;;;;;;6113006;23;20025;-96
2023/08/16 10:09:09;;;;;;;2.45;1.92;;;21.10;57.60;;;;;;5958112;23;20075;-96
2023/08/16 10:11:44;;;;;;;6.97;1.80;;;21.80;99.90;;;;;;6021375;23;20046;-89
2023/08/16 10:50:19;;;;;;;2.70;1.92;;;21.60;99.90;;;;;;5827926;24;20018;-93
2023/08/16 11:07:07;;;;;;;;;;;;;;;;;;;;;
2023/08/16 11:09:49;;;;;;;;;;;;;;;;;;;;;
2023/08/16 11:49:32;;;;;;;;;;;;;;;;;;;;;
2023/08/16 12:00:01;;;;;;;5.38;2.03;;;23.40;99.90;;;;;;6169416;23;20103;-96
2023/08/16 12:03:23;;;;;;;2.90;1.70;;;23.50;1.00;;;;;;6240835;23;20028;-96
2023/08/16 12:15:55;;;;;;;2.13;1.60;;;22.80;1.00;;;;;;6143270;23;20025;-96
2023/08/16 12:19:08;;;;;;;4.43;1.73;;;23.30;99.90;;;;;;6066462;23;20074;-96
2023/08/16 12:21:55;;;;;;;;;;;;;;;;;;;;;
2023/08/16 14:12:40;;;;;;;2.83;1.35;;;24.90;99.90;;;;;;6067159;23;20022;-89
2023/08/16 14:15:07;;;;;;;1.42;1.23;;;24.90;1.00;;;;;;6041488;23;20380;-88
2023/08/16 14:17:55;;;;;;;3.78;1.58;;;24.80;1.00;;;;;;6160176;23;20020;-92
2023/08/16 14:20:26;;;;;;;1.58;1.13;;;24.90;99.90;;;;;;6138927;23;20024;-90
2023/08/16 14:23:14;;;;;;;3.08;1.17;;;25.00;99.90;;;;;;6140146;23;20012;-90
2023/08/16 14:25:46;;;;;;;1.60;0.80;;;24.80;99.90;;;;;;6164921;23;20016;-92
2023/08/16 14:28:18;;;;;;;3.72;1.58;;;24.80;1.00;;;;;;6164146;23;20051;-93
2023/08/16 14:30:50;;;;;;;1.30;0.90;;;24.80;1.00;;;;;;6140506;23;20012;-89
2023/08/16 14:33:29;;;;;;;1.63;1.00;;;24.80;1.00;;;;;;6188305;23;20032;-93
2023/08/16 14:35:55;;;;;;;3.17;1.10;;;24.80;99.90;;;;;;6190729;23;20012;-92
2023/08/16 14:38:21;;;;;;;;;;;24.70;99.90;;;;;;6188353;23;20449;-93
2023/08/16 14:41:01;;;;;;;2.85;1.27;;;24.80;1.00;;;;;;6164684;23;19916;-92
2023/08/16 14:43:31;;;;;;;1.10;0.80;;;24.80;99.90;;;;;;6118087;23;20099;-94
2023/08/16 14:46:02;;;;;;;4.18;1.77;;;24.30;99.90;;;;;;6140888;23;20019;-91
2023/08/16 14:48:31;;;;;;;1.35;1.17;;;24.80;1.00;;;;;;6138785;23;20021;-92
2023/08/16 14:51:22;;;;;;;2.95;0.98;;;24.80;99.90;;;;;;6164222;23;20076;-93
2023/08/16 14:53:50;;;;;;;1.30;1.20;;;24.80;99.90;;;;;;6140865;23;20039;-92
2023/08/16 14:56:19;;;;;;;1.20;1.10;;;24.60;99.90;;;;;;6139266;23;20016;-92
2023/08/16 14:59:16;;;;;;;1.05;0.95;;;24.60;1.00;;;;;;6164102;23;20027;-92
2023/08/16 15:01:37;;;;;;;1.48;1.17;;;24.70;1.00;;;;;;6182021;23;20028;-92
2023/08/16 15:07:01;;;;;;;2.73;1.07;;;24.60;99.90;;;;;;6168087;23;20021;-95
2023/08/16 15:09:57;;;;;;;1.27;1.10;;;24.00;99.90;;;;;;6158034;23;20052;-96
2023/08/16 15:12:33;;;;;;;4.45;1.02;;;24.60;99.90;;;;;;6162147;23;20017;-95
2023/08/16 15:19:52;;;;;;;1.45;1.30;;;24.70;99.90;;;;;;6108472;23;20030;-96
2023/08/16 15:22:19;;;;;;;1.40;1.10;;;24.60;99.90;;;;;;6081134;23;20017;-90
2023/08/16 15:24:48;;;;;;;4.95;1.92;;;24.50;1.00;;;;;;6183680;23;20450;-90
2023/08/16 15:27:16;;;;;;;2.40;1.23;;;24.40;1.00;;;;;;6184619;23;20021;-84
2023/08/16 15:29:42;;;;;;;2.63;1.48;;;24.50;1.00;;;;;;6158265;23;20028;-86
2023/08/16 15:32:08;;;;;;;2.63;1.45;;;24.40;1.00;;;;;;6184441;23;20017;-89
2023/08/16 15:34:33;;;;;;;2.80;1.08;;;24.40;1.00;;;;;;6182040;23;20056;-84
2023/08/16 15:36:59;;;;;;;;;;;24.30;1.00;;;;;;6184169;23;20519;-87
2023/08/16 15:39:25;;;;;;;2.47;1.50;;;24.20;1.00;;;;;;6181814;23;19916;-85
2023/08/16 15:41:50;;;;;;;4.93;2.33;;;24.20;20.70;;;;;;6183995;23;20116;-84
2023/08/16 15:44:18;;;;;;;;;;;24.20;1.00;;;;;;6158648;23;20059;-84
2023/08/16 15:46:43;;;;;;;1.73;1.13;;;24.10;1.00;;;;;;6184501;23;19955;-84
2023/08/16 15:49:09;;;;;;;2.97;1.33;;;24.10;1.00;;;;;;6184599;23;20025;-84
2023/08/16 15:51:35;;;;;;;;;;;24.00;1.00;;;;;;6158093;23;20063;-84
2023/08/16 15:54:01;;;;;;;2.75;1.55;;;24.00;4.60;;;;;;6158441;23;19916;-84
2023/08/16 15:56:27;;;;;;;5.95;1.33;;;24.00;40.60;;;;;;6134057;23;20108;-85
2023/08/16 15:58:53;;;;;;;2.65;1.27;;;24.00;88.60;;;;;;6183377;23;20441;-84
2023/08/16 16:01:19;;;;;;;4.40;1.45;;;24.00;99.90;;;;;;6158452;23;20024;-90
2023/08/16 16:03:44;;;;;;;;;;;23.90;80.50;;;;;;6183573;23;20025;-84
2023/08/16 16:06:10;;;;;;;3.40;1.17;;;23.90;99.90;;;;;;6184302;23;19963;-84
2023/08/16 16:08:36;;;;;;;2.67;1.15;;;23.80;99.90;;;;;;6197605;23;20020;-84
2023/08/16 16:11:02;;;;;;;2.05;1.50;;;23.70;99.90;;;;;;6190093;23;20021;-84
2023/08/16 16:13:28;;;;;;;4.20;1.40;;;23.70;99.90;;;;;;6140059;23;20046;-85
2023/08/16 16:15:53;;;;;;;2.45;1.45;;;23.70;99.90;;;;;;6216648;23;20013;-84
2023/08/16 16:18:20;;;;;;;;;;;23.70;99.90;;;;;;6165773;23;20020;-85
2023/08/16 16:20:47;;;;;;;3.08;1.15;;;23.60;99.90;;;;;;6189530;23;19916;-85
2023/08/16 16:23:12;;;;;;;2.38;1.45;;;23.50;99.90;;;;;;6190255;23;20067;-85
2023/08/16 16:25:38;;;;;;;4.53;1.80;;;23.50;99.90;;;;;;6216035;23;20024;-85
2023/08/16 16:28:04;;;;;;;3.25;1.23;;;23.50;99.90;;;;;;6190018;23;20059;-84
2023/08/16 16:30:30;;;;;;;3.65;1.23;;;23.50;99.90;;;;;;6216015;23;20020;-85
2023/08/16 16:32:56;;;;;;;4.40;1.50;;;23.50;99.90;;;;;;6164895;23;20017;-85
2023/08/16 16:35:24;;;;;;;4.07;1.30;;;23.40;99.90;;;;;;6216433;23;20021;-84
2023/08/16 16:37:50;;;;;;;4.15;1.80;;;23.70;99.90;;;;;;6216291;23;20453;-84
2023/08/16 16:40:17;;;;;;;4.78;2.00;;;23.30;99.90;;;;;;6216206;23;20389;-85
2023/08/16 16:42:43;;;;;;;2.42;1.80;;;23.20;1.00;;;;;;6215848;23;20338;-85
2023/08/16 16:45:10;;;;;;;5.78;2.35;;;23.20;99.90;;;;;;6190046;23;20021;-84
2023/08/16 16:47:35;;;;;;;2.15;1.40;;;23.20;1.00;;;;;;6189901;23;20017;-85
2023/08/16 16:50:01;;;;;;;4.90;1.65;;;23.80;99.90;;;;;;6164881;23;20048;-85
2023/08/16 16:52:27;;;;;;;4.65;1.55;;;23.00;99.90;;;;;;6215735;23;20016;-91
2023/08/16 16:54:53;;;;;;;4.82;2.47;;;22.90;1.00;;;;;;6189853;23;20103;-85
2023/08/16 16:57:19;;;;;;;2.80;1.70;;;22.80;1.00;;;;;;6189895;23;20071;-84
2023/08/16 16:59:44;;;;;;;4.35;1.92;;;22.70;1.00;;;;;;6215823;23;20505;-84
2023/08/16 17:02:10;;;;;;;4.78;1.60;;;22.60;94.40;;;;;;6217146;23;20012;-84
2023/08/16 17:04:36;;;;;;;3.80;1.77;;;22.50;99.90;;;;;;6216168;23;20027;-85
2023/08/16 17:07:03;;;;;;;3.55;1.67;;;22.50;99.90;;;;;;6164686;23;20151;-84
2023/08/16 17:09:28;;;;;;;5.00;2.92;;;22.40;99.90;;;;;;6164615;23;20056;-87
2023/08/16 17:11:55;;;;;;;3.60;1.90;;;22.30;99.90;;;;;;6189379;23;20044;-84
2023/08/16 17:14:21;;;;;;;2.67;1.63;;;22.20;90.00;;;;;;6189172;23;20140;-84
2023/08/16 17:16:47;;;;;;;4.22;1.77;;;22.10;99.90;;;;;;6164031;23;20075;-84
2023/08/16 17:19:13;;;;;;;4.90;2.10;;;22.00;99.90;;;;;;6190174;23;20021;-84
2023/08/16 17:21:41;;;;;;;3.55;1.52;;;22.00;99.90;;;;;;6215718;23;20091;-84
2023/08/16 17:24:08;;;;;;;4.32;2.15;;;21.90;99.90;;;;;;6141237;23;20092;-84
2023/08/16 17:26:33;;;;;;;;;;;21.80;99.90;;;;;;6216345;23;20070;-85
2023/08/16 17:29:00;;;;;;;3.72;2.10;;;21.70;1.00;;;;;;6189647;23;20283;-83
2023/08/16 17:31:26;;;;;;;2.90;1.75;;;21.70;23.90;;;;;;6165109;23;20024;-84
2023/08/16 17:33:51;;;;;;;3.15;2.03;;;21.60;82.30;;;;;;6216492;23;20587;-84
2023/08/16 17:36:19;;;;;;;8.20;2.35;;;21.50;99.90;;;;;;6218553;23;20017;-83
2023/08/16 17:38:46;;;;;;;3.42;1.83;;;21.40;99.90;;;;;;6191462;23;20071;-84
2023/08/16 17:41:20;;;;;;;3.92;1.67;;;21.30;99.90;;;;;;6191309;23;20020;-84